sensor_id;sensor_type;location;lat;lon;timestamp;temperature;humidity
31687;DHT22;18285;51.330;4.946;2022-12-07T00:11:21;27.80;29.90
31687;DHT22;18285;51.330;4.946;2022-12-07T00:35:32;27.60;29.90
31687;DHT22;18285;51.330;4.946;2022-12-07T00:59:43;27.50;30.00
31687;DHT22;18285;51.330;4.946;2022-12-07T01:23:54;27.20;30.00
31687;DHT22;18285;51.330;4.946;2022-12-07T01:48:05;27.00;30.60
31687;DHT22;18285;51.330;4.946;2022-12-07T02:12:18;26.90;30.80
31687;DHT22;18285;51.330;4.946;2022-12-07T02:36:34;26.70;30.50
31687;DHT22;18285;51.330;4.946;2022-12-07T03:01:10;26.60;30.90
31687;DHT22;18285;51.330;4.946;2022-12-07T03:25:24;26.40;31.00
31687;DHT22;18285;51.330;4.946;2022-12-07T03:49:43;26.10;30.90
31687;DHT22;18285;51.330;4.946;2022-12-07T04:13:55;26.00;31.00
31687;DHT22;18285;51.330;4.946;2022-12-07T04:38:24;25.80;31.50
31687;DHT22;18285;51.330;4.946;2022-12-07T05:02:35;25.80;30.90
31687;DHT22;18285;51.330;4.946;2022-12-07T05:26:46;25.70;30.90
31687;DHT22;18285;51.330;4.946;2022-12-07T05:50:57;25.60;30.90
31687;DHT22;18285;51.330;4.946;2022-12-07T06:15:08;25.40;30.90
31687;DHT22;18285;51.330;4.946;2022-12-07T06:39:20;25.40;31.80
31687;DHT22;18285;51.330;4.946;2022-12-07T07:03:31;25.30;32.30
31687;DHT22;18285;51.330;4.946;2022-12-07T07:27:42;25.20;31.50
31687;DHT22;18285;51.330;4.946;2022-12-07T07:51:52;25.10;30.10
31687;DHT22;18285;51.330;4.946;2022-12-07T08:16:08;24.90;29.60
31687;DHT22;18285;51.330;4.946;2022-12-07T08:40:19;24.70;29.50
31687;DHT22;18285;51.330;4.946;2022-12-07T09:04:31;24.70;29.40
31687;DHT22;18285;51.330;4.946;2022-12-07T09:28:44;24.60;30.60
31687;DHT22;18285;51.330;4.946;2022-12-07T09:53:25;24.60;31.50
31687;DHT22;18285;51.330;4.946;2022-12-07T10:17:39;24.60;31.90
31687;DHT22;18285;51.330;4.946;2022-12-07T11:55:54;24.40;33.10
31687;DHT22;18285;51.330;4.946;2022-12-07T12:20:29;24.50;33.10
31687;DHT22;18285;51.330;4.946;2022-12-07T12:44:41;23.80;31.80
31687;DHT22;18285;51.330;4.946;2022-12-07T13:09:24;23.90;33.10
31687;DHT22;18285;51.330;4.946;2022-12-07T13:33:36;23.90;31.70
31687;DHT22;18285;51.330;4.946;2022-12-07T13:57:52;23.80;32.70
31687;DHT22;18285;51.330;4.946;2022-12-07T14:22:17;24.00;32.40
31687;DHT22;18285;51.330;4.946;2022-12-07T14:46:29;23.90;32.40
31687;DHT22;18285;51.330;4.946;2022-12-07T15:10:40;24.00;31.90
31687;DHT22;18285;51.330;4.946;2022-12-07T15:59:51;23.90;31.70
31687;DHT22;18285;51.330;4.946;2022-12-07T16:24:02;23.90;32.00
31687;DHT22;18285;51.330;4.946;2022-12-07T16:48:16;23.90;33.80
31687;DHT22;18285;51.330;4.946;2022-12-07T17:12:49;24.00;33.90
31687;DHT22;18285;51.330;4.946;2022-12-07T17:37:00;24.00;34.70
31687;DHT22;18285;51.330;4.946;2022-12-07T18:01:11;23.90;33.90
31687;DHT22;18285;51.330;4.946;2022-12-07T18:25:23;23.90;33.00
31687;DHT22;18285;51.330;4.946;2022-12-07T18:49:33;23.70;33.10
31687;DHT22;18285;51.330;4.946;2022-12-07T19:13:44;23.80;32.60
31687;DHT22;18285;51.330;4.946;2022-12-07T19:37:55;23.60;32.50
31687;DHT22;18285;51.330;4.946;2022-12-07T20:02:08;23.60;33.10
31687;DHT22;18285;51.330;4.946;2022-12-07T20:26:19;23.60;34.40
31687;DHT22;18285;51.330;4.946;2022-12-07T20:50:30;23.90;34.20
31687;DHT22;18285;51.330;4.946;2022-12-07T21:14:42;24.60;33.40
31687;DHT22;18285;51.330;4.946;2022-12-07T21:38:52;25.50;31.60
31687;DHT22;18285;51.330;4.946;2022-12-07T22:03:03;26.10;30.80
31687;DHT22;18285;51.330;4.946;2022-12-07T22:27:14;26.70;30.40
31687;DHT22;18285;51.330;4.946;2022-12-07T22:51:32;27.10;30.10
31687;DHT22;18285;51.330;4.946;2022-12-07T23:15:43;27.40;29.70
31687;DHT22;18285;51.330;4.946;2022-12-07T23:39:53;27.50;29.20
